createdAt,value
2022-09-26T00:04:48.692Z,1.37
2022-09-26T00:09:48.726Z,1.62
2022-09-26T00:14:48.728Z,1.77
2022-09-26T00:19:48.693Z,1.69
2022-09-26T00:24:48.702Z,2.11
2022-09-26T00:29:48.697Z,2.31
2022-09-26T00:34:48.703Z,2.27
2022-09-26T00:39:48.713Z,2.57
2022-09-26T00:44:48.757Z,3.01
2022-09-26T00:49:48.703Z,2.9
2022-09-26T00:54:48.714Z,3.27
2022-09-26T00:59:48.745Z,3.36
2022-09-26T01:04:48.721Z,3.6
2022-09-26T01:09:48.748Z,3.46
2022-09-26T01:14:48.740Z,3.28
2022-09-26T01:19:48.765Z,3.25
2022-09-26T01:24:48.767Z,3.54
2022-09-26T01:29:48.773Z,3.29
2022-09-26T01:34:48.731Z,2.84
2022-09-26T01:39:48.731Z,3.12
2022-09-26T01:44:48.742Z,2.99
2022-09-26T01:49:48.747Z,2.92
2022-09-26T01:54:48.782Z,2.87
2022-09-26T01:59:48.773Z,2.76
2022-09-26T02:04:48.775Z,3.2
2022-09-26T02:09:48.739Z,3.17
2022-09-26T02:14:48.774Z,2.99
2022-09-26T02:19:48.779Z,2.89
2022-09-26T02:24:48.793Z,2.82
2022-09-26T02:29:48.787Z,3
2022-09-26T02:34:48.787Z,3.17
2022-09-26T02:39:48.772Z,3.02
2022-09-26T02:44:48.802Z,3.05
2022-09-26T02:49:48.793Z,3.21
2022-09-26T02:54:48.766Z,3.38
2022-09-26T02:59:48.778Z,3.39
2022-09-26T03:04:48.893Z,3.8
2022-09-26T03:09:48.828Z,3.69
2022-09-26T03:14:48.767Z,3.82
2022-09-26T03:19:48.775Z,3.31
2022-09-26T03:24:48.835Z,3.17
2022-09-26T03:29:48.826Z,3.2
2022-09-26T03:34:48.785Z,3.24
2022-09-26T03:39:48.815Z,2.89
2022-09-26T03:44:48.787Z,2.8
2022-09-26T03:49:48.823Z,2.88
2022-09-26T03:54:48.822Z,2.94
2022-09-26T03:59:48.833Z,2.72
2022-09-26T04:04:48.829Z,2.92
2022-09-26T04:09:48.840Z,2.91
2022-09-26T04:14:48.798Z,2.86
2022-09-26T04:19:48.843Z,2.7
2022-09-26T04:24:48.847Z,2.95
2022-09-26T04:29:48.827Z,3.66
2022-09-26T04:34:48.862Z,3.54
2022-09-26T04:39:48.812Z,3.89
2022-09-26T04:44:48.854Z,3.91
2022-09-26T04:49:48.874Z,2.94
2022-09-26T04:54:48.826Z,2.69
2022-09-26T04:59:48.826Z,2.66
2022-09-26T05:04:48.867Z,2.68
2022-09-26T05:09:48.823Z,2.46
2022-09-26T05:14:48.823Z,2.39
2022-09-26T05:19:48.850Z,2.34
2022-09-26T05:24:48.868Z,2.31
2022-09-26T05:29:48.880Z,2.26
2022-09-26T05:34:48.891Z,2.25
2022-09-26T05:39:48.840Z,2.53
2022-09-26T05:44:48.879Z,2.43
2022-09-26T05:49:48.858Z,2.28
2022-09-26T05:54:48.854Z,2.2
2022-09-26T05:59:48.879Z,2.36
2022-09-26T06:04:48.859Z,2.21
2022-09-26T06:09:48.862Z,2.29
2022-09-26T06:14:48.885Z,2.34
2022-09-26T06:19:48.889Z,2.55
2022-09-26T06:24:48.900Z,2.44
2022-09-26T06:29:48.868Z,2.04
2022-09-26T06:30:52.735Z,2.2
2022-09-26T06:35:52.703Z,2.05
2022-09-26T06:40:52.817Z,2.28
2022-09-26T06:45:52.712Z,2.29
2022-09-26T06:50:52.713Z,2.24
2022-09-26T06:55:52.724Z,2.35
2022-09-26T07:00:52.861Z,2.75
2022-09-26T07:05:52.719Z,2.49
2022-09-26T07:10:52.746Z,2.68
2022-09-26T07:15:52.805Z,2.29
2022-09-26T07:20:56.570Z,2.52
2022-09-26T07:25:52.728Z,2.3
2022-09-26T07:30:52.718Z,1.95
2022-09-26T07:35:52.732Z,1.64
2022-09-26T07:40:52.770Z,1.9
2022-09-26T07:45:52.724Z,2.05
2022-09-26T07:50:52.762Z,2.11
2022-09-26T07:55:52.729Z,2.19
2022-09-26T08:05:52.806Z,2.44
2022-09-26T08:10:52.777Z,2.15
2022-09-26T08:15:52.747Z,2.07
2022-09-26T08:20:52.788Z,2.02
2022-09-26T08:25:52.755Z,2.04
2022-09-26T08:30:52.782Z,1.79
2022-09-26T08:35:52.757Z,1.76
2022-09-26T08:40:52.808Z,1.99
2022-09-26T08:45:52.758Z,1.52
2022-09-26T08:50:52.764Z,1.67
2022-09-26T08:55:52.765Z,1.48
2022-09-26T09:00:52.766Z,1.61
2022-09-26T09:05:52.768Z,1.39
2022-09-26T09:10:52.783Z,1.44
2022-09-26T09:15:52.814Z,1.42
2022-09-26T09:20:52.774Z,1.66
2022-09-26T09:25:52.871Z,1.59
2022-09-26T09:30:52.819Z,1.8
2022-09-26T09:35:52.783Z,1.63
2022-09-26T09:40:52.877Z,1.58
2022-09-26T09:45:52.806Z,1.79
2022-09-26T09:50:52.786Z,2.02
2022-09-26T09:55:52.792Z,2.03
2022-09-26T10:00:52.802Z,2.02
2022-09-26T10:05:52.809Z,2.11
2022-09-26T10:10:52.828Z,1.98
2022-09-26T10:15:52.860Z,2.06
2022-09-26T10:20:52.848Z,2.04
2022-09-26T10:25:52.846Z,2.08
2022-09-26T10:30:52.881Z,2.17
2022-09-26T10:35:52.842Z,2.14
2022-09-26T10:40:52.834Z,2.23
2022-09-26T10:45:52.809Z,2.2
2022-09-26T10:50:52.830Z,2.3
2022-09-26T10:55:52.829Z,2.4
2022-09-26T11:00:52.821Z,2.68
2022-09-26T11:05:52.823Z,2.52
2022-09-26T11:10:52.829Z,2.55
2022-09-26T11:15:52.887Z,2.49
2022-09-26T11:20:52.877Z,2.92
2022-09-26T11:25:57.067Z,2.83
2022-09-26T11:30:52.878Z,2.66
2022-09-26T11:35:52.850Z,2.45
2022-09-26T11:40:52.906Z,2.39
2022-09-26T11:45:52.879Z,2.56
2022-09-26T11:50:52.861Z,2.46
2022-09-26T11:55:52.902Z,2.65
2022-09-26T12:00:52.884Z,2.52
2022-09-26T12:05:52.852Z,2.66
2022-09-26T12:10:52.901Z,2.64
2022-09-26T12:15:52.907Z,2.54
2022-09-26T12:20:52.881Z,2.54
2022-09-26T12:25:52.903Z,2.5
2022-09-26T12:30:52.934Z,2.46
2022-09-26T12:35:52.851Z,3.06
2022-09-26T12:40:52.922Z,2.79
2022-09-26T12:45:53.382Z,2.38
2022-09-26T12:50:52.869Z,2.03
2022-09-26T12:55:52.891Z,2.18
2022-09-26T13:00:52.885Z,2.25
2022-09-26T13:05:52.884Z,2.12
2022-09-26T13:10:52.886Z,2.23
2022-09-26T13:15:53.134Z,2.29
2022-09-26T13:20:53.074Z,2.65
2022-09-26T13:25:53.060Z,2.82
2022-09-26T13:30:53.131Z,2.33
2022-09-26T13:35:52.891Z,2.26
2022-09-26T13:40:52.997Z,1.94
2022-09-26T13:45:52.958Z,1.55
2022-09-26T13:50:52.899Z,1.47
2022-09-26T13:55:52.906Z,1.57
2022-09-26T14:00:52.909Z,1.51
2022-09-26T14:05:52.906Z,1.86
2022-09-26T14:10:52.920Z,1.89
2022-09-26T14:15:52.929Z,1.84
2022-09-26T14:20:52.925Z,1.96
2022-09-26T14:25:52.920Z,2.06
2022-09-26T14:30:52.950Z,2.19
2022-09-26T14:35:52.919Z,2.2
2022-09-26T14:40:53.047Z,2.11
2022-09-26T14:45:52.990Z,2.26
2022-09-26T14:50:52.927Z,2.33
2022-09-26T14:55:52.931Z,2.31
2022-09-26T15:00:52.936Z,2.19
2022-09-26T15:05:52.952Z,1.85
2022-09-26T15:10:52.946Z,1.92
2022-09-26T15:15:53.015Z,1.8
2022-09-26T15:20:52.947Z,1.87
2022-09-26T15:25:52.962Z,1.92
2022-09-26T15:30:52.977Z,1.85
2022-09-26T15:35:52.993Z,1.82
2022-09-26T15:40:53.061Z,1.89
2022-09-26T15:45:53.070Z,2.03
2022-09-26T15:50:53.022Z,1.94
2022-09-26T15:55:52.980Z,1.97
2022-09-26T16:00:52.972Z,2.18
2022-09-26T16:05:52.976Z,2.46
2022-09-26T16:10:52.974Z,1.89
2022-09-26T16:15:53.016Z,1.84
2022-09-26T16:20:52.974Z,2.12
2022-09-26T16:25:53.042Z,2.18
2022-09-26T16:30:53.014Z,2.27
2022-09-26T16:35:52.980Z,2.38
2022-09-26T16:40:53.114Z,2.62
2022-09-26T16:45:53.004Z,3.97
2022-09-26T16:50:53.014Z,4.02
2022-09-26T16:55:52.991Z,5.14
2022-09-26T17:00:53.098Z,7.36
2022-09-26T17:05:53.007Z,11.62
2022-09-26T17:10:53.022Z,11.87
2022-09-26T17:15:53.076Z,17.27
2022-09-26T17:20:53.012Z,16.72
2022-09-26T17:25:56.895Z,13.85
2022-09-26T17:30:53.036Z,10.6
2022-09-26T17:35:53.048Z,9.34
2022-09-26T17:40:53.111Z,11.22
2022-09-26T17:45:53.063Z,14.23
2022-09-26T17:50:53.016Z,11.28
2022-09-26T17:55:53.021Z,7.77
2022-09-26T18:00:53.039Z,7.84
2022-09-26T18:05:53.026Z,14.13
2022-09-26T18:10:53.029Z,20.29
2022-09-26T18:15:53.039Z,11.93
2022-09-26T18:20:53.042Z,16.01
2022-09-26T18:25:53.052Z,20.3
2022-09-26T18:30:57.044Z,16.78
2022-09-26T18:35:53.051Z,13.47
2022-09-26T18:40:53.060Z,10.81
2022-09-26T18:45:53.074Z,9.56
2022-09-26T18:50:53.054Z,9.27
2022-09-26T18:55:53.055Z,11.48
2022-09-26T19:00:53.060Z,12.74
2022-09-26T19:05:53.049Z,9.21
2022-09-26T19:10:53.120Z,6.2
2022-09-26T19:15:53.097Z,5.62
2022-09-26T19:20:53.079Z,6.06
2022-09-26T19:25:53.088Z,5.87
2022-09-26T19:30:53.177Z,5.95
2022-09-26T19:35:53.109Z,6.11
2022-09-26T19:40:53.187Z,5.55
2022-09-26T19:45:53.142Z,5
2022-09-26T19:50:53.119Z,3.78
2022-09-26T19:55:53.112Z,3.91
2022-09-26T20:00:53.106Z,4.16
2022-09-26T20:05:53.093Z,4.95
2022-09-26T20:10:53.089Z,4.95
2022-09-26T20:15:53.102Z,6.19
2022-09-26T20:20:53.096Z,5.42
2022-09-26T20:25:53.099Z,6.65
2022-09-26T20:30:53.125Z,7.18
2022-09-26T20:35:53.126Z,9.34
2022-09-26T20:40:53.201Z,7.87
2022-09-26T20:45:53.188Z,7.27
2022-09-26T20:50:53.137Z,5.22
2022-09-26T20:55:53.111Z,4.53
2022-09-26T21:00:53.106Z,5.5
2022-09-26T21:05:53.088Z,5.67
2022-09-26T21:10:53.103Z,4.62
2022-09-26T21:15:53.109Z,5.3
2022-09-26T21:20:53.126Z,4.9
2022-09-26T21:25:53.139Z,4.37
2022-09-26T21:30:53.171Z,4.54
2022-09-26T21:35:53.117Z,5
2022-09-26T21:40:53.167Z,4.81
2022-09-26T21:45:53.192Z,4.48
2022-09-26T21:50:56.884Z,4.24
2022-09-26T21:55:53.133Z,4.4
2022-09-26T22:00:53.156Z,5.78
2022-09-26T22:05:53.134Z,5.06
2022-09-26T22:10:53.142Z,4.98
2022-09-26T22:15:53.140Z,5.69
2022-09-26T22:20:53.181Z,5.32
2022-09-26T22:25:53.154Z,5.54
2022-09-26T22:30:53.163Z,5.48
2022-09-26T22:35:53.142Z,5.19
2022-09-26T22:40:53.175Z,5.35
2022-09-26T22:45:53.232Z,5.18
2022-09-26T22:50:53.183Z,5.36
2022-09-26T22:55:53.146Z,5.73
2022-09-26T23:00:53.281Z,7.01
2022-09-26T23:05:53.168Z,5.83
2022-09-26T23:10:53.161Z,5.35
2022-09-26T23:15:53.196Z,5.29
2022-09-26T23:20:53.166Z,5.48
2022-09-26T23:25:53.180Z,5.5
2022-09-26T23:30:53.204Z,4.5
2022-09-26T23:35:53.171Z,4.51
2022-09-26T23:40:53.234Z,4.8
2022-09-26T23:45:53.215Z,4.52
2022-09-26T23:50:53.203Z,4.58
2022-09-26T23:55:53.199Z,4.75
